Time;durP1;ratioP1;P1;durP2;ratioP2;P2;SDS_P1;SDS_P2;PMS_P1;PMS_P2;Temp;Humidity;BMP_temperature;BMP_pressure;BME280_temperature;BME280_humidity;BME280_pressure;Samples;Min_cycle;Max_cycle;Signal;HPM_P1;HPM_P2
2022/12/16 00:01:15;;;;;;;110.78;59.88;;;;;;;-3.60;75.64;101069.62;1741030;80;21086;-90
2022/12/16 00:03:49;;;;;;;105.90;55.05;;;;;;;-3.59;75.66;101070.13;1744333;80;21976;-90
2022/12/16 00:06:16;;;;;;;108.30;57.60;;;;;;;-3.60;75.66;101074.77;1743303;81;21105;-90
2022/12/16 00:08:44;;;;;;;112.88;60.88;;;;;;;-3.60;75.69;101070.02;1763703;80;21300;-90
2022/12/16 00:11:11;;;;;;;111.52;56.80;;;;;;;-3.60;75.68;101071.31;1739262;82;21093;-81
2022/12/16 00:13:43;;;;;;;107.40;55.40;;;;;;;-3.60;75.68;101068.34;1749521;80;21101;-89
2022/12/16 00:16:10;;;;;;;101.80;55.48;;;;;;;-3.58;75.73;101067.19;1749826;80;21792;-90
2022/12/16 00:18:37;;;;;;;101.60;54.73;;;;;;;-3.53;75.87;101072.33;1743185;80;21095;-89
2022/12/16 00:21:05;;;;;;;113.08;58.33;;;;;;;-3.48;75.81;101072.34;1743218;80;21051;-90
2022/12/16 00:23:32;;;;;;;104.38;56.08;;;;;;;-3.48;75.71;101080.45;1746441;80;21059;-81
2022/12/16 00:25:59;;;;;;;170.92;74.82;;;;;;;-3.52;75.65;101076.33;1741753;80;21071;-81
2022/12/16 00:28:26;;;;;;;267.82;93.62;;;;;;;-3.53;75.66;101073.61;1747443;80;21739;-88
2022/12/16 00:30:55;;;;;;;231.13;83.65;;;;;;;-3.52;75.68;101080.58;1746010;80;21070;-89
2022/12/16 00:33:24;;;;;;;217.90;80.35;;;;;;;-3.55;75.60;101077.73;1747563;80;21232;-91
2022/12/16 00:35:50;;;;;;;223.22;89.58;;;;;;;-3.58;75.62;101078.38;1738734;80;21115;-81
2022/12/16 00:38:18;;;;;;;149.40;68.85;;;;;;;-3.56;75.73;101077.23;1746159;80;21580;-81
2022/12/16 00:40:44;;;;;;;106.85;56.35;;;;;;;-3.56;75.73;101081.98;1743627;80;22557;-89
2022/12/16 00:43:11;;;;;;;104.45;54.93;;;;;;;-3.55;75.74;101083.80;1751323;80;21308;-89
2022/12/16 00:45:38;;;;;;;103.42;54.88;;;;;;;-3.51;75.79;101090.08;1740918;80;21031;-81
2022/12/16 00:48:05;;;;;;;94.40;51.02;;;;;;;-3.48;75.75;101094.61;1748033;80;21566;-81
2022/12/16 00:50:32;;;;;;;107.07;53.40;;;;;;;-3.47;75.77;101092.18;1737856;80;21054;-82
2022/12/16 00:52:59;;;;;;;107.70;56.88;;;;;;;-3.46;75.74;101090.50;1737563;80;21809;-89
2022/12/16 00:55:26;;;;;;;93.60;49.48;;;;;;;-3.45;75.78;101097.07;1738622;80;21921;-82
2022/12/16 00:57:53;;;;;;;93.80;50.50;;;;;;;-3.47;75.71;101106.33;1746079;80;22366;-82
2022/12/16 01:00:21;;;;;;;93.78;50.75;;;;;;;-3.48;75.71;101112.63;1738001;80;21055;-90
2022/12/16 01:02:48;;;;;;;85.55;48.38;;;;;;;-3.47;75.75;101111.84;1731312;82;21047;-90
2022/12/16 01:05:17;;;;;;;95.87;52.90;;;;;;;-3.49;75.72;101107.87;1734224;81;23095;-89
2022/12/16 01:07:44;;;;;;;90.97;49.27;;;;;;;-3.47;75.82;101105.05;1731571;82;22117;-89
2022/12/16 01:10:10;;;;;;;95.50;50.00;;;;;;;-3.42;75.84;101108.00;1731895;81;21070;-89
2022/12/16 01:12:37;;;;;;;85.25;46.98;;;;;;;-3.41;75.80;101107.25;1730375;82;21051;-89
2022/12/16 01:15:06;;;;;;;86.85;46.90;;;;;;;-3.41;75.79;101117.14;1733553;81;21042;-82
2022/12/16 01:17:33;;;;;;;97.42;49.33;;;;;;;-3.44;75.71;101102.72;1741048;81;22216;-88
2022/12/16 01:20:01;;;;;;;96.22;48.80;;;;;;;-3.47;75.70;101105.41;1732074;81;21076;-89
2022/12/16 01:22:31;;;;;;;90.77;47.08;;;;;;;-3.50;75.75;101111.20;1747407;81;21058;-82
2022/12/16 01:24:58;;;;;;;91.20;46.80;;;;;;;-3.52;75.80;101116.21;1733221;81;21094;-87
2022/12/16 01:27:26;;;;;;;92.22;49.10;;;;;;;-3.51;75.88;101122.25;1734638;81;21046;-88
2022/12/16 01:29:52;;;;;;;90.07;47.17;;;;;;;-3.46;75.93;101122.66;1733085;81;22625;-89
2022/12/16 01:32:19;;;;;;;86.95;46.48;;;;;;;-3.44;76.04;101126.27;1739658;81;21463;-90
2022/12/16 01:34:52;;;;;;;97.57;50.03;;;;;;;-3.39;76.00;101128.47;1735692;81;21046;-89
2022/12/16 01:37:19;;;;;;;92.00;48.05;;;;;;;-3.37;75.96;101126.04;1732045;81;21086;-88
2022/12/16 01:39:46;;;;;;;93.47;47.05;;;;;;;-3.33;75.99;101125.13;1739899;81;21672;-88
2022/12/16 01:42:16;;;;;;;96.25;49.38;;;;;;;-3.34;75.89;101128.86;1729140;81;21734;-81
2022/12/16 01:44:47;;;;;;;88.70;46.40;;;;;;;-3.33;76.00;101136.72;1733160;81;21198;-89
2022/12/16 01:47:18;;;;;;;86.55;46.88;;;;;;;-3.28;75.93;101134.95;1733004;81;21109;-81
2022/12/16 01:50:03;;;;;;;96.80;49.18;;;;;;;-3.30;75.82;101133.53;1729148;81;21070;-81
2022/12/16 01:52:35;;;;;;;90.95;45.73;;;;;;;-3.34;75.79;101140.08;1736247;81;21125;-82
2022/12/16 01:55:14;;;;;;;101.27;51.70;;;;;;;-3.33;75.84;101143.16;1731986;81;21938;-90
2022/12/16 01:57:49;;;;;;;98.52;51.00;;;;;;;-3.32;75.87;101144.97;1754418;81;21612;-87
2022/12/16 02:00:17;;;;;;;96.00;50.12;;;;;;;-3.31;75.86;101143.29;1740464;81;21107;-88
2022/12/16 02:02:44;;;;;;;95.50;49.67;;;;;;;-3.33;75.85;101148.30;1742897;81;21478;-88
2022/12/16 02:05:20;;;;;;;107.70;53.50;;;;;;;-3.37;75.72;101151.78;1731380;81;21095;-89
2022/12/16 02:08:10;;;;;;;99.90;49.53;;;;;;;-3.41;75.78;101150.61;1746088;81;21761;-89
2022/12/16 02:10:45;;;;;;;100.47;50.23;;;;;;;-3.41;75.80;101148.42;1734413;81;21051;-81
2022/12/16 02:13:45;;;;;;;104.38;53.17;;;;;;;-3.42;75.87;101142.75;1731285;81;21115;-89
2022/12/16 02:16:35;;;;;;;109.42;54.63;;;;;;;-3.43;75.88;101150.86;1738147;81;21300;-80
2022/12/16 02:19:22;;;;;;;101.60;51.65;;;;;;;-3.41;75.92;101151.89;1732954;81;21077;-88
2022/12/16 02:22:33;;;;;;;110.90;55.45;;;;;;;-3.41;75.93;101154.47;1729326;81;21780;-81
2022/12/16 02:25:17;;;;;;;110.05;54.50;;;;;;;-3.40;75.91;101156.64;1713430;81;21290;-88
2022/12/16 02:28:05;;;;;;;107.20;51.60;;;;;;;-3.36;76.00;101152.28;1733774;81;21113;-80
2022/12/16 02:31:03;;;;;;;97.20;51.95;;;;;;;-3.33;75.93;101157.31;1734065;81;21063;-82
2022/12/16 02:33:53;;;;;;;108.63;54.35;;;;;;;-3.35;75.86;101153.70;1733849;81;21599;-90
2022/12/16 02:36:30;;;;;;;102.65;51.23;;;;;;;-3.33;75.86;101153.45;1730176;81;22696;-89
2022/12/16 02:39:34;;;;;;;108.10;54.75;;;;;;;-3.30;76.00;101151.91;1730585;82;21071;-82
2022/12/16 02:42:08;;;;;;;105.17;53.60;;;;;;;-3.28;75.85;101141.39;1735431;81;21066;-83
2022/12/16 02:45:14;;;;;;;96.47;51.58;;;;;;;-3.26;75.88;101129.55;1736451;81;21051;-81
2022/12/16 02:47:41;;;;;;;104.32;52.23;;;;;;;-3.26;75.74;101138.16;1711185;81;21087;-83
2022/12/16 02:50:20;;;;;;;102.60;50.10;;;;;;;-3.21;75.87;101133.03;1734633;81;21887;-82
2022/12/16 02:52:46;;;;;;;103.78;52.75;;;;;;;-3.19;75.78;101145.65;1729614;82;21345;-91
2022/12/16 02:55:13;;;;;;;98.12;50.20;;;;;;;-3.15;75.85;101146.42;1729313;81;21039;-82
2022/12/16 02:58:17;;;;;;;105.47;51.42;;;;;;;-3.11;75.75;101138.97;1733078;81;21106;-82
2022/12/16 03:01:21;;;;;;;101.92;50.52;;;;;;;-3.11;75.67;101138.58;1736478;81;21075;-82
2022/12/16 03:03:55;;;;;;;100.00;51.55;;;;;;;-3.11;75.64;101142.84;1736246;81;21780;-89
2022/12/16 03:06:22;;;;;;;106.45;52.98;;;;;;;-3.07;75.69;101137.17;1730455;81;21098;-90
2022/12/16 03:08:52;;;;;;;101.82;50.67;;;;;;;-3.07;75.65;101135.48;1730442;82;21656;-81
2022/12/16 03:11:19;;;;;;;108.97;52.08;;;;;;;-3.07;75.59;101136.77;1730908;82;21120;-90
2022/12/16 03:13:49;;;;;;;106.90;52.50;;;;;;;-3.08;75.47;101136.24;1734846;81;21072;-89
2022/12/16 03:16:18;;;;;;;107.22;53.13;;;;;;;-3.05;75.56;101135.23;1734524;81;21838;-81
2022/12/16 03:18:47;;;;;;;108.07;52.78;;;;;;;-3.05;75.52;101135.23;1733316;81;21012;-81
2022/12/16 03:21:14;;;;;;;106.05;53.45;;;;;;;-3.02;75.46;101145.80;1731007;81;21019;-89
2022/12/16 03:23:46;;;;;;;104.85;53.63;;;;;;;-3.02;75.38;101150.95;1732967;81;21023;-82
2022/12/16 03:26:18;;;;;;;106.63;54.10;;;;;;;-3.04;75.41;101142.20;1732194;81;21032;-90
2022/12/16 03:28:55;;;;;;;106.10;55.28;;;;;;;-3.04;75.34;101146.42;1739484;81;22562;-82
2022/12/16 03:31:56;;;;;;;107.17;54.38;;;;;;;-3.03;75.40;101148.25;1731520;81;21040;-89
2022/12/16 03:34:41;;;;;;;112.15;55.75;;;;;;;-3.01;75.42;101148.87;1720648;81;21069;-81
2022/12/16 03:37:09;;;;;;;111.28;55.45;;;;;;;-2.97;75.43;101156.09;1737415;81;21101;-85
2022/12/16 03:39:41;;;;;;;108.37;55.85;;;;;;;-2.94;75.44;101156.36;1738478;81;21504;-89
2022/12/16 03:42:08;;;;;;;107.47;56.08;;;;;;;-2.91;75.46;101146.69;1735431;81;22180;-81
2022/12/16 03:44:34;;;;;;;104.50;53.02;;;;;;;-2.91;75.35;101152.23;1730048;81;21082;-88
2022/12/16 03:47:01;;;;;;;103.72;55.00;;;;;;;-2.91;75.29;101152.23;1736588;81;21039;-89
2022/12/16 03:49:28;;;;;;;109.52;54.27;;;;;;;-2.92;75.16;101157.79;1731345;81;21456;-88
2022/12/16 03:51:55;;;;;;;110.50;55.40;;;;;;;-2.95;75.21;101152.36;1731594;81;21822;-81
2022/12/16 03:54:23;;;;;;;115.00;56.88;;;;;;;-2.97;75.14;101149.65;1728682;81;23180;-81
2022/12/16 03:56:49;;;;;;;111.15;55.30;;;;;;;-2.97;75.16;101146.18;1730387;81;20984;-89
2022/12/16 03:59:17;;;;;;;111.85;57.60;;;;;;;-3.03;75.08;101144.38;1732902;82;21008;-89
2022/12/16 04:01:44;;;;;;;108.55;54.67;;;;;;;-3.06;75.23;101151.47;1730190;81;21078;-89
2022/12/16 04:04:11;;;;;;;114.12;56.25;;;;;;;-3.05;75.23;101149.79;1731336;82;21058;-89
2022/12/16 04:06:38;;;;;;;110.17;56.83;;;;;;;-3.08;75.18;101149.52;1742617;81;21744;-88
2022/12/16 04:09:04;;;;;;;116.53;59.15;;;;;;;-3.07;75.30;101155.20;1740799;81;21022;-80
2022/12/16 04:25:32;;;;;;;109.25;55.58;;;;;;;-3.10;75.24;101157.10;1734312;81;21016;-81
2022/12/16 04:27:59;;;;;;;115.20;56.48;;;;;;;-3.09;75.28;101152.48;1734083;81;21016;-81
2022/12/16 04:30:26;;;;;;;115.90;56.48;;;;;;;-3.09;75.26;101151.20;1735277;81;21112;-90
